sensor_id;sensor_type;location;lat;lon;timestamp;temperature;humidity
38514;DHT22;24282;48.400;10.808;2023-09-08T00:00:57;14.90;80.80
38514;DHT22;24282;48.400;10.808;2023-09-08T00:03:23;14.80;80.90
38514;DHT22;24282;48.400;10.808;2023-09-08T00:05:49;14.80;80.90
38514;DHT22;24282;48.400;10.808;2023-09-08T00:08:14;14.80;80.80
38514;DHT22;24282;48.400;10.808;2023-09-08T00:10:40;14.70;80.90
38514;DHT22;24282;48.400;10.808;2023-09-08T00:13:06;14.70;80.90
38514;DHT22;24282;48.400;10.808;2023-09-08T00:15:34;14.70;81.00
38514;DHT22;24282;48.400;10.808;2023-09-08T00:18:01;14.70;81.00
38514;DHT22;24282;48.400;10.808;2023-09-08T00:20:26;14.60;81.00
38514;DHT22;24282;48.400;10.808;2023-09-08T00:22:52;14.60;81.00
38514;DHT22;24282;48.400;10.808;2023-09-08T00:25:18;14.60;81.00
38514;DHT22;24282;48.400;10.808;2023-09-08T00:27:44;14.50;81.00
38514;DHT22;24282;48.400;10.808;2023-09-08T00:30:10;14.50;81.10
38514;DHT22;24282;48.400;10.808;2023-09-08T00:32:36;14.50;81.10
38514;DHT22;24282;48.400;10.808;2023-09-08T00:35:01;14.50;81.10
38514;DHT22;24282;48.400;10.808;2023-09-08T00:37:27;14.40;81.10
38514;DHT22;24282;48.400;10.808;2023-09-08T00:39:53;14.40;81.10
38514;DHT22;24282;48.400;10.808;2023-09-08T00:42:19;14.40;81.10
38514;DHT22;24282;48.400;10.808;2023-09-08T00:44:44;14.40;81.10
38514;DHT22;24282;48.400;10.808;2023-09-08T00:47:10;14.40;81.10
38514;DHT22;24282;48.400;10.808;2023-09-08T00:49:36;14.40;81.10
38514;DHT22;24282;48.400;10.808;2023-09-08T00:52:03;14.30;81.10
38514;DHT22;24282;48.400;10.808;2023-09-08T00:54:28;14.30;81.20
38514;DHT22;24282;48.400;10.808;2023-09-08T00:56:57;14.30;81.20
38514;DHT22;24282;48.400;10.808;2023-09-08T00:59:24;14.30;81.30
38514;DHT22;24282;48.400;10.808;2023-09-08T01:01:50;14.20;81.40
38514;DHT22;24282;48.400;10.808;2023-09-08T01:04:16;14.20;81.30
38514;DHT22;24282;48.400;10.808;2023-09-08T01:06:43;14.20;81.30
38514;DHT22;24282;48.400;10.808;2023-09-08T01:09:09;14.10;81.40
38514;DHT22;24282;48.400;10.808;2023-09-08T01:11:36;14.10;81.40
38514;DHT22;24282;48.400;10.808;2023-09-08T01:14:02;14.10;81.40
38514;DHT22;24282;48.400;10.808;2023-09-08T01:16:28;14.10;81.40
38514;DHT22;24282;48.400;10.808;2023-09-08T01:18:54;14.10;81.50
38514;DHT22;24282;48.400;10.808;2023-09-08T01:24:36;14.00;81.50
38514;DHT22;24282;48.400;10.808;2023-09-08T01:27:03;14.00;81.50
38514;DHT22;24282;48.400;10.808;2023-09-08T01:29:32;14.00;81.40
38514;DHT22;24282;48.400;10.808;2023-09-08T01:31:59;13.90;81.50
38514;DHT22;24282;48.400;10.808;2023-09-08T01:34:26;13.90;81.40
38514;DHT22;24282;48.400;10.808;2023-09-08T01:36:52;13.90;81.40
38514;DHT22;24282;48.400;10.808;2023-09-08T01:39:17;13.90;81.30
38514;DHT22;24282;48.400;10.808;2023-09-08T01:41:43;13.90;81.30
38514;DHT22;24282;48.400;10.808;2023-09-08T01:44:09;13.80;81.30
38514;DHT22;24282;48.400;10.808;2023-09-08T01:46:35;13.80;81.30
38514;DHT22;24282;48.400;10.808;2023-09-08T01:49:01;13.70;81.40
38514;DHT22;24282;48.400;10.808;2023-09-08T01:51:27;13.70;81.40
38514;DHT22;24282;48.400;10.808;2023-09-08T01:53:53;13.70;81.50
38514;DHT22;24282;48.400;10.808;2023-09-08T01:56:18;13.70;81.50
38514;DHT22;24282;48.400;10.808;2023-09-08T01:58:44;13.70;81.60
38514;DHT22;24282;48.400;10.808;2023-09-08T02:01:10;13.60;81.60
38514;DHT22;24282;48.400;10.808;2023-09-08T02:03:36;13.60;81.60
38514;DHT22;24282;48.400;10.808;2023-09-08T02:06:02;13.60;81.60
38514;DHT22;24282;48.400;10.808;2023-09-08T02:08:27;13.60;81.70
38514;DHT22;24282;48.400;10.808;2023-09-08T02:10:53;13.50;81.70
38514;DHT22;24282;48.400;10.808;2023-09-08T02:13:19;13.50;81.70
38514;DHT22;24282;48.400;10.808;2023-09-08T02:15:44;13.50;81.70
38514;DHT22;24282;48.400;10.808;2023-09-08T02:18:10;13.50;81.80
38514;DHT22;24282;48.400;10.808;2023-09-08T02:20:37;13.50;81.80
38514;DHT22;24282;48.400;10.808;2023-09-08T02:23:06;13.50;81.80
38514;DHT22;24282;48.400;10.808;2023-09-08T02:25:33;13.50;81.80
38514;DHT22;24282;48.400;10.808;2023-09-08T02:27:59;13.40;81.70
38514;DHT22;24282;48.400;10.808;2023-09-08T02:30:24;13.40;81.60
38514;DHT22;24282;48.400;10.808;2023-09-08T02:32:51;13.40;81.70
38514;DHT22;24282;48.400;10.808;2023-09-08T02:35:17;13.40;81.80
38514;DHT22;24282;48.400;10.808;2023-09-08T02:37:43;13.40;81.70
38514;DHT22;24282;48.400;10.808;2023-09-08T02:40:09;13.30;81.70
38514;DHT22;24282;48.400;10.808;2023-09-08T02:42:36;13.30;81.70
38514;DHT22;24282;48.400;10.808;2023-09-08T02:45:02;13.30;81.60
38514;DHT22;24282;48.400;10.808;2023-09-08T02:47:28;13.30;81.70
38514;DHT22;24282;48.400;10.808;2023-09-08T02:49:54;13.20;81.70
38514;DHT22;24282;48.400;10.808;2023-09-08T02:52:20;13.20;81.80
38514;DHT22;24282;48.400;10.808;2023-09-08T02:54:46;13.20;81.70
38514;DHT22;24282;48.400;10.808;2023-09-08T02:57:12;13.20;81.80
38514;DHT22;24282;48.400;10.808;2023-09-08T02:59:37;13.10;81.80
38514;DHT22;24282;48.400;10.808;2023-09-08T03:02:03;13.10;81.90
38514;DHT22;24282;48.400;10.808;2023-09-08T03:04:29;13.10;81.80
38514;DHT22;24282;48.400;10.808;2023-09-08T03:06:55;13.10;81.80
38514;DHT22;24282;48.400;10.808;2023-09-08T03:09:21;13.10;81.80
38514;DHT22;24282;48.400;10.808;2023-09-08T03:11:47;13.00;81.80
38514;DHT22;24282;48.400;10.808;2023-09-08T03:14:13;13.00;81.90
38514;DHT22;24282;48.400;10.808;2023-09-08T03:16:38;13.00;82.00
38514;DHT22;24282;48.400;10.808;2023-09-08T03:19:04;13.00;81.90
38514;DHT22;24282;48.400;10.808;2023-09-08T03:21:30;13.00;81.70
38514;DHT22;24282;48.400;10.808;2023-09-08T03:23:56;13.00;81.70
38514;DHT22;24282;48.400;10.808;2023-09-08T03:26:22;12.90;81.60
38514;DHT22;24282;48.400;10.808;2023-09-08T03:28:47;12.90;81.60
38514;DHT22;24282;48.400;10.808;2023-09-08T03:31:13;12.90;81.60
38514;DHT22;24282;48.400;10.808;2023-09-08T03:33:40;12.90;81.70
38514;DHT22;24282;48.400;10.808;2023-09-08T03:36:07;12.90;81.70
38514;DHT22;24282;48.400;10.808;2023-09-08T03:38:34;12.90;81.70
38514;DHT22;24282;48.400;10.808;2023-09-08T03:41:02;12.90;81.70
38514;DHT22;24282;48.400;10.808;2023-09-08T03:43:28;12.80;81.90
38514;DHT22;24282;48.400;10.808;2023-09-08T03:45:54;12.80;81.80
38514;DHT22;24282;48.400;10.808;2023-09-08T03:48:21;12.80;81.80
38514;DHT22;24282;48.400;10.808;2023-09-08T03:50:47;12.80;81.80
38514;DHT22;24282;48.400;10.808;2023-09-08T03:53:14;12.70;81.70
38514;DHT22;24282;48.400;10.808;2023-09-08T03:55:39;12.70;81.70
38514;DHT22;24282;48.400;10.808;2023-09-08T03:58:05;12.70;81.70
38514;DHT22;24282;48.400;10.808;2023-09-08T04:00:31;12.70;81.60
38514;DHT22;24282;48.400;10.808;2023-09-08T04:02:57;12.70;81.60
38514;DHT22;24282;48.400;10.808;2023-09-08T04:05:22;12.60;81.60
38514;DHT22;24282;48.400;10.808;2023-09-08T04:07:48;12.60;81.60
38514;DHT22;24282;48.400;10.808;2023-09-08T04:10:14;12.60;81.60
38514;DHT22;24282;48.400;10.808;2023-09-08T04:12:40;12.60;81.60
38514;DHT22;24282;48.400;10.808;2023-09-08T04:15:07;12.50;81.70
38514;DHT22;24282;48.400;10.808;2023-09-08T04:17:33;12.50;81.90
38514;DHT22;24282;48.400;10.808;2023-09-08T04:19:59;12.50;81.90
38514;DHT22;24282;48.400;10.808;2023-09-08T04:22:25;12.50;81.90
38514;DHT22;24282;48.400;10.808;2023-09-08T04:24:50;12.50;82.00
38514;DHT22;24282;48.400;10.808;2023-09-08T04:27:17;12.50;82.00
38514;DHT22;24282;48.400;10.808;2023-09-08T04:29:43;12.40;82.00
38514;DHT22;24282;48.400;10.808;2023-09-08T04:32:08;12.40;82.10
38514;DHT22;24282;48.400;10.808;2023-09-08T04:34:39;12.40;82.20
38514;DHT22;24282;48.400;10.808;2023-09-08T04:37:05;12.40;82.30
38514;DHT22;24282;48.400;10.808;2023-09-08T04:39:32;12.40;82.10
38514;DHT22;24282;48.400;10.808;2023-09-08T04:41:58;12.40;82.10
38514;DHT22;24282;48.400;10.808;2023-09-08T04:44:24;12.40;82.20
38514;DHT22;24282;48.400;10.808;2023-09-08T04:46:51;12.40;82.10
38514;DHT22;24282;48.400;10.808;2023-09-08T04:49:17;12.40;82.20
38514;DHT22;24282;48.400;10.808;2023-09-08T04:51:43;12.30;82.20
38514;DHT22;24282;48.400;10.808;2023-09-08T04:54:09;12.30;82.20
38514;DHT22;24282;48.400;10.808;2023-09-08T04:56:35;12.30;82.30
38514;DHT22;24282;48.400;10.808;2023-09-08T04:59:01;12.30;82.20
38514;DHT22;24282;48.400;10.808;2023-09-08T05:01:27;12.20;82.10
38514;DHT22;24282;48.400;10.808;2023-09-08T05:03:55;12.30;82.20
38514;DHT22;24282;48.400;10.808;2023-09-08T05:06:21;12.30;82.30
38514;DHT22;24282;48.400;10.808;2023-09-08T05:08:47;12.30;82.40
38514;DHT22;24282;48.400;10.808;2023-09-08T05:11:13;12.30;82.40
38514;DHT22;24282;48.400;10.808;2023-09-08T05:13:38;12.30;82.30
38514;DHT22;24282;48.400;10.808;2023-09-08T05:16:05;12.30;82.40
38514;DHT22;24282;48.400;10.808;2023-09-08T05:18:39;12.30;82.40
38514;DHT22;24282;48.400;10.808;2023-09-08T05:21:05;12.20;82.60
38514;DHT22;24282;48.400;10.808;2023-09-08T05:23:31;12.30;82.80
38514;DHT22;24282;48.400;10.808;2023-09-08T05:25:56;12.20;82.80
38514;DHT22;24282;48.400;10.808;2023-09-08T05:28:22;12.30;83.00
38514;DHT22;24282;48.400;10.808;2023-09-08T05:30:51;12.30;83.10
38514;DHT22;24282;48.400;10.808;2023-09-08T05:33:17;12.30;83.20
38514;DHT22;24282;48.400;10.808;2023-09-08T05:35:44;12.30;83.20
38514;DHT22;24282;48.400;10.808;2023-09-08T05:38:10;12.40;83.40
38514;DHT22;24282;48.400;10.808;2023-09-08T05:40:36;12.40;83.50
38514;DHT22;24282;48.400;10.808;2023-09-08T05:43:02;12.40;83.70
38514;DHT22;24282;48.400;10.808;2023-09-08T05:45:28;12.40;83.80
38514;DHT22;24282;48.400;10.808;2023-09-08T05:47:56;12.40;84.00
38514;DHT22;24282;48.400;10.808;2023-09-08T05:50:21;12.50;84.10
38514;DHT22;24282;48.400;10.808;2023-09-08T05:52:48;12.50;84.20
38514;DHT22;24282;48.400;10.808;2023-09-08T05:55:14;12.60;84.20
38514;DHT22;24282;48.400;10.808;2023-09-08T05:57:39;12.60;84.30
38514;DHT22;24282;48.400;10.808;2023-09-08T06:00:07;12.60;84.40
38514;DHT22;24282;48.400;10.808;2023-09-08T06:02:38;12.70;84.50
38514;DHT22;24282;48.400;10.808;2023-09-08T06:05:06;12.70;84.60
38514;DHT22;24282;48.400;10.808;2023-09-08T06:07:33;12.80;84.70
38514;DHT22;24282;48.400;10.808;2023-09-08T06:10:00;12.80;84.80
38514;DHT22;24282;48.400;10.808;2023-09-08T06:12:27;12.80;84.90
38514;DHT22;24282;48.400;10.808;2023-09-08T06:14:53;12.90;85.00
38514;DHT22;24282;48.400;10.808;2023-09-08T06:17:19;12.90;85.10
38514;DHT22;24282;48.400;10.808;2023-09-08T06:19:45;12.90;85.20
38514;DHT22;24282;48.400;10.808;2023-09-08T06:22:11;13.00;85.40
38514;DHT22;24282;48.400;10.808;2023-09-08T06:24:37;13.00;85.50
38514;DHT22;24282;48.400;10.808;2023-09-08T06:27:03;13.10;85.60
38514;DHT22;24282;48.400;10.808;2023-09-08T06:29:29;13.10;85.70
38514;DHT22;24282;48.400;10.808;2023-09-08T06:31:54;13.20;85.90
38514;DHT22;24282;48.400;10.808;2023-09-08T06:34:20;13.20;86.00
38514;DHT22;24282;48.400;10.808;2023-09-08T06:36:48;13.30;86.10
38514;DHT22;24282;48.400;10.808;2023-09-08T06:39:14;13.30;86.20
38514;DHT22;24282;48.400;10.808;2023-09-08T06:41:40;13.40;86.40
38514;DHT22;24282;48.400;10.808;2023-09-08T06:44:08;13.40;86.50
38514;DHT22;24282;48.400;10.808;2023-09-08T06:46:35;13.50;86.60
38514;DHT22;24282;48.400;10.808;2023-09-08T06:49:00;13.50;86.60
38514;DHT22;24282;48.400;10.808;2023-09-08T06:51:26;13.60;86.60
38514;DHT22;24282;48.400;10.808;2023-09-08T06:53:56;13.70;86.50
38514;DHT22;24282;48.400;10.808;2023-09-08T06:56:23;13.80;86.40
38514;DHT22;24282;48.400;10.808;2023-09-08T06:58:50;13.90;86.40
38514;DHT22;24282;48.400;10.808;2023-09-08T07:01:17;13.90;86.50
38514;DHT22;24282;48.400;10.808;2023-09-08T07:03:43;14.00;86.60
38514;DHT22;24282;48.400;10.808;2023-09-08T07:06:09;14.10;86.90
38514;DHT22;24282;48.400;10.808;2023-09-08T07:08:35;14.10;86.80
38514;DHT22;24282;48.400;10.808;2023-09-08T07:11:01;14.20;87.00
38514;DHT22;24282;48.400;10.808;2023-09-08T07:13:27;14.30;87.10
38514;DHT22;24282;48.400;10.808;2023-09-08T07:15:53;14.40;87.10
38514;DHT22;24282;48.400;10.808;2023-09-08T07:18:20;14.40;87.00
38514;DHT22;24282;48.400;10.808;2023-09-08T07:20:47;14.50;87.00
38514;DHT22;24282;48.400;10.808;2023-09-08T07:23:16;14.50;86.90
38514;DHT22;24282;48.400;10.808;2023-09-08T07:25:46;14.60;86.80
38514;DHT22;24282;48.400;10.808;2023-09-08T07:28:11;14.70;86.80
38514;DHT22;24282;48.400;10.808;2023-09-08T07:30:37;14.80;86.60
38514;DHT22;24282;48.400;10.808;2023-09-08T07:33:03;14.90;86.40
38514;DHT22;24282;48.400;10.808;2023-09-08T07:35:30;14.90;86.10
38514;DHT22;24282;48.400;10.808;2023-09-08T07:37:56;15.00;85.70
38514;DHT22;24282;48.400;10.808;2023-09-08T07:40:22;15.00;86.20
38514;DHT22;24282;48.400;10.808;2023-09-08T07:42:48;15.10;86.40
38514;DHT22;24282;48.400;10.808;2023-09-08T07:45:14;15.10;86.50
38514;DHT22;24282;48.400;10.808;2023-09-08T07:47:39;15.30;86.60
38514;DHT22;24282;48.400;10.808;2023-09-08T07:52:46;15.40;86.50
38514;DHT22;24282;48.400;10.808;2023-09-08T07:55:11;15.40;86.50
38514;DHT22;24282;48.400;10.808;2023-09-08T07:57:37;15.50;86.60
38514;DHT22;24282;48.400;10.808;2023-09-08T08:00:03;15.60;86.60
38514;DHT22;24282;48.400;10.808;2023-09-08T08:02:47;15.70;86.60
38514;DHT22;24282;48.400;10.808;2023-09-08T08:05:14;15.70;86.40
38514;DHT22;24282;48.400;10.808;2023-09-08T08:07:41;15.70;86.40
38514;DHT22;24282;48.400;10.808;2023-09-08T08:10:07;15.80;86.30
38514;DHT22;24282;48.400;10.808;2023-09-08T08:12:33;15.90;86.20
38514;DHT22;24282;48.400;10.808;2023-09-08T08:14:59;15.90;86.20
38514;DHT22;24282;48.400;10.808;2023-09-08T08:17:25;16.00;85.90
38514;DHT22;24282;48.400;10.808;2023-09-08T08:19:52;16.10;85.60
38514;DHT22;24282;48.400;10.808;2023-09-08T08:22:18;16.10;85.20
38514;DHT22;24282;48.400;10.808;2023-09-08T08:24:44;16.20;85.20
38514;DHT22;24282;48.400;10.808;2023-09-08T08:27:09;16.40;85.40
38514;DHT22;24282;48.400;10.808;2023-09-08T08:29:35;16.50;85.30
38514;DHT22;24282;48.400;10.808;2023-09-08T08:32:01;16.60;84.40
38514;DHT22;24282;48.400;10.808;2023-09-08T08:34:26;16.70;83.90
38514;DHT22;24282;48.400;10.808;2023-09-08T08:36:52;16.80;83.80
38514;DHT22;24282;48.400;10.808;2023-09-08T08:39:18;16.90;83.60
38514;DHT22;24282;48.400;10.808;2023-09-08T08:41:44;17.10;83.10
38514;DHT22;24282;48.400;10.808;2023-09-08T08:44:10;17.20;82.80
38514;DHT22;24282;48.400;10.808;2023-09-08T08:46:37;17.40;82.30
38514;DHT22;24282;48.400;10.808;2023-09-08T08:49:03;17.50;81.70
38514;DHT22;24282;48.400;10.808;2023-09-08T08:51:30;17.80;80.70
38514;DHT22;24282;48.400;10.808;2023-09-08T08:53:57;18.00;79.70
38514;DHT22;24282;48.400;10.808;2023-09-08T08:56:23;18.30;78.90
38514;DHT22;24282;48.400;10.808;2023-09-08T08:58:50;18.60;78.90
38514;DHT22;24282;48.400;10.808;2023-09-08T09:01:16;18.90;78.10
38514;DHT22;24282;48.400;10.808;2023-09-08T09:03:49;19.20;76.40
38514;DHT22;24282;48.400;10.808;2023-09-08T09:06:15;19.50;75.80
38514;DHT22;24282;48.400;10.808;2023-09-08T09:08:43;19.80;75.50
38514;DHT22;24282;48.400;10.808;2023-09-08T09:11:10;20.10;75.30
38514;DHT22;24282;48.400;10.808;2023-09-08T09:13:36;20.30;74.00
38514;DHT22;24282;48.400;10.808;2023-09-08T09:16:02;20.50;71.30
38514;DHT22;24282;48.400;10.808;2023-09-08T09:18:32;20.80;71.50
38514;DHT22;24282;48.400;10.808;2023-09-08T09:21:00;20.90;71.00
38514;DHT22;24282;48.400;10.808;2023-09-08T09:23:33;21.10;70.60
38514;DHT22;24282;48.400;10.808;2023-09-08T09:26:01;21.30;69.40
38514;DHT22;24282;48.400;10.808;2023-09-08T09:28:29;21.40;68.70
38514;DHT22;24282;48.400;10.808;2023-09-08T09:30:55;21.60;68.60
38514;DHT22;24282;48.400;10.808;2023-09-08T09:33:22;21.70;68.50
38514;DHT22;24282;48.400;10.808;2023-09-08T09:35:51;21.90;68.40
38514;DHT22;24282;48.400;10.808;2023-09-08T09:38:21;21.90;67.90
38514;DHT22;24282;48.400;10.808;2023-09-08T09:40:47;22.10;67.90
38514;DHT22;24282;48.400;10.808;2023-09-08T09:43:15;22.20;68.10
38514;DHT22;24282;48.400;10.808;2023-09-08T09:45:41;22.30;67.30
38514;DHT22;24282;48.400;10.808;2023-09-08T09:48:10;22.30;67.70
38514;DHT22;24282;48.400;10.808;2023-09-08T09:50:39;22.40;66.60
38514;DHT22;24282;48.400;10.808;2023-09-08T09:55:37;22.60;66.60
38514;DHT22;24282;48.400;10.808;2023-09-08T09:58:05;22.70;65.80
38514;DHT22;24282;48.400;10.808;2023-09-08T10:00:33;22.80;65.10
38514;DHT22;24282;48.400;10.808;2023-09-08T10:03:00;22.80;64.50
38514;DHT22;24282;48.400;10.808;2023-09-08T10:05:26;22.90;64.70
38514;DHT22;24282;48.400;10.808;2023-09-08T10:07:53;22.90;64.10
38514;DHT22;24282;48.400;10.808;2023-09-08T10:10:20;22.90;63.90
38514;DHT22;24282;48.400;10.808;2023-09-08T10:12:52;22.90;64.10
38514;DHT22;24282;48.400;10.808;2023-09-08T10:15:21;22.90;63.20
38514;DHT22;24282;48.400;10.808;2023-09-08T10:17:53;22.90;62.10
38514;DHT22;24282;48.400;10.808;2023-09-08T10:20:20;22.90;62.50
38514;DHT22;24282;48.400;10.808;2023-09-08T10:22:54;22.90;63.00
38514;DHT22;24282;48.400;10.808;2023-09-08T10:25:24;22.90;62.90
38514;DHT22;24282;48.400;10.808;2023-09-08T10:27:50;22.90;63.20
38514;DHT22;24282;48.400;10.808;2023-09-08T10:30:17;22.90;64.50
38514;DHT22;24282;48.400;10.808;2023-09-08T10:32:43;22.90;64.80
38514;DHT22;24282;48.400;10.808;2023-09-08T10:35:10;22.90;65.00
38514;DHT22;24282;48.400;10.808;2023-09-08T10:37:36;22.90;65.60
38514;DHT22;24282;48.400;10.808;2023-09-08T10:40:21;22.80;66.30
38514;DHT22;24282;48.400;10.808;2023-09-08T10:42:47;22.80;65.90
38514;DHT22;24282;48.400;10.808;2023-09-08T10:45:19;22.80;64.20
38514;DHT22;24282;48.400;10.808;2023-09-08T10:50:19;22.80;64.50
38514;DHT22;24282;48.400;10.808;2023-09-08T10:52:45;22.90;63.80
38514;DHT22;24282;48.400;10.808;2023-09-08T10:55:46;22.90;63.30
38514;DHT22;24282;48.400;10.808;2023-09-08T10:58:18;22.90;63.70
38514;DHT22;24282;48.400;10.808;2023-09-08T11:00:51;22.90;63.90
38514;DHT22;24282;48.400;10.808;2023-09-08T11:03:47;22.90;64.20
38514;DHT22;24282;48.400;10.808;2023-09-08T11:06:18;23.00;64.30
38514;DHT22;24282;48.400;10.808;2023-09-08T11:08:45;23.00;64.80
38514;DHT22;24282;48.400;10.808;2023-09-08T11:11:12;23.10;64.00
38514;DHT22;24282;48.400;10.808;2023-09-08T11:13:39;23.10;64.30
38514;DHT22;24282;48.400;10.808;2023-09-08T11:16:11;23.20;64.20
38514;DHT22;24282;48.400;10.808;2023-09-08T11:18:37;23.20;64.60
38514;DHT22;24282;48.400;10.808;2023-09-08T11:21:07;23.30;64.30
38514;DHT22;24282;48.400;10.808;2023-09-08T11:23:33;23.30;65.00
38514;DHT22;24282;48.400;10.808;2023-09-08T11:25:59;23.40;65.20
38514;DHT22;24282;48.400;10.808;2023-09-08T11:28:27;23.40;64.90
38514;DHT22;24282;48.400;10.808;2023-09-08T11:30:54;23.60;64.30
38514;DHT22;24282;48.400;10.808;2023-09-08T11:33:22;23.60;63.70
38514;DHT22;24282;48.400;10.808;2023-09-08T11:35:54;23.70;63.80
38514;DHT22;24282;48.400;10.808;2023-09-08T11:38:28;23.80;63.50
38514;DHT22;24282;48.400;10.808;2023-09-08T11:40:55;23.90;63.60
38514;DHT22;24282;48.400;10.808;2023-09-08T11:43:22;24.00;62.40
38514;DHT22;24282;48.400;10.808;2023-09-08T11:45:48;24.00;62.70
38514;DHT22;24282;48.400;10.808;2023-09-08T11:48:15;24.10;62.90
38514;DHT22;24282;48.400;10.808;2023-09-08T11:50:44;24.20;63.10
38514;DHT22;24282;48.400;10.808;2023-09-08T11:53:10;24.30;62.50
38514;DHT22;24282;48.400;10.808;2023-09-08T11:55:36;24.30;62.30
38514;DHT22;24282;48.400;10.808;2023-09-08T11:58:04;24.40;62.70
38514;DHT22;24282;48.400;10.808;2023-09-08T12:00:30;24.50;63.00
38514;DHT22;24282;48.400;10.808;2023-09-08T12:03:10;24.60;61.90
38514;DHT22;24282;48.400;10.808;2023-09-08T12:05:35;24.60;60.70
38514;DHT22;24282;48.400;10.808;2023-09-08T12:08:04;24.80;62.30
38514;DHT22;24282;48.400;10.808;2023-09-08T12:10:42;24.90;62.20
38514;DHT22;24282;48.400;10.808;2023-09-08T12:13:09;24.90;61.60
38514;DHT22;24282;48.400;10.808;2023-09-08T12:15:37;24.90;62.20
38514;DHT22;24282;48.400;10.808;2023-09-08T12:18:12;25.10;62.20
38514;DHT22;24282;48.400;10.808;2023-09-08T12:20:39;25.20;62.50
38514;DHT22;24282;48.400;10.808;2023-09-08T12:23:15;25.30;62.30
38514;DHT22;24282;48.400;10.808;2023-09-08T12:25:52;25.30;62.40
38514;DHT22;24282;48.400;10.808;2023-09-08T12:28:20;25.40;61.50
38514;DHT22;24282;48.400;10.808;2023-09-08T12:30:46;25.50;61.00
38514;DHT22;24282;48.400;10.808;2023-09-08T12:33:13;25.50;59.90
38514;DHT22;24282;48.400;10.808;2023-09-08T12:35:43;25.70;60.60
38514;DHT22;24282;48.400;10.808;2023-09-08T12:38:10;25.70;60.70
38514;DHT22;24282;48.400;10.808;2023-09-08T12:40:37;25.80;60.50
38514;DHT22;24282;48.400;10.808;2023-09-08T12:43:04;25.80;61.20
38514;DHT22;24282;48.400;10.808;2023-09-08T12:45:30;25.80;61.50
38514;DHT22;24282;48.400;10.808;2023-09-08T12:47:58;25.80;61.40
38514;DHT22;24282;48.400;10.808;2023-09-08T12:50:25;25.90;60.40
38514;DHT22;24282;48.400;10.808;2023-09-08T12:52:51;25.90;59.90
38514;DHT22;24282;48.400;10.808;2023-09-08T12:55:17;25.90;60.30
38514;DHT22;24282;48.400;10.808;2023-09-08T12:57:43;25.90;60.90
38514;DHT22;24282;48.400;10.808;2023-09-08T13:00:09;25.90;59.80
38514;DHT22;24282;48.400;10.808;2023-09-08T13:02:35;26.00;60.10
38514;DHT22;24282;48.400;10.808;2023-09-08T13:05:03;26.00;59.30
38514;DHT22;24282;48.400;10.808;2023-09-08T13:07:29;26.00;59.70
38514;DHT22;24282;48.400;10.808;2023-09-08T13:09:56;26.00;60.80
38514;DHT22;24282;48.400;10.808;2023-09-08T13:12:22;26.00;60.50
38514;DHT22;24282;48.400;10.808;2023-09-08T13:14:47;26.10;60.40
38514;DHT22;24282;48.400;10.808;2023-09-08T13:17:13;26.10;60.80
38514;DHT22;24282;48.400;10.808;2023-09-08T13:19:43;26.10;60.80
38514;DHT22;24282;48.400;10.808;2023-09-08T13:22:09;26.10;60.00
38514;DHT22;24282;48.400;10.808;2023-09-08T13:24:36;26.10;59.50
38514;DHT22;24282;48.400;10.808;2023-09-08T13:27:02;26.10;60.40
38514;DHT22;24282;48.400;10.808;2023-09-08T13:29:28;26.20;56.80
38514;DHT22;24282;48.400;10.808;2023-09-08T13:31:54;26.20;57.20
38514;DHT22;24282;48.400;10.808;2023-09-08T13:34:23;26.10;58.30
38514;DHT22;24282;48.400;10.808;2023-09-08T13:36:50;26.20;58.90
38514;DHT22;24282;48.400;10.808;2023-09-08T13:39:16;26.20;58.50
38514;DHT22;24282;48.400;10.808;2023-09-08T13:41:53;26.20;59.10
38514;DHT22;24282;48.400;10.808;2023-09-08T13:44:20;26.20;59.60
38514;DHT22;24282;48.400;10.808;2023-09-08T13:46:47;26.20;60.00
38514;DHT22;24282;48.400;10.808;2023-09-08T13:49:13;26.20;60.40
38514;DHT22;24282;48.400;10.808;2023-09-08T13:51:39;26.20;60.30
38514;DHT22;24282;48.400;10.808;2023-09-08T13:54:06;26.20;60.30
38514;DHT22;24282;48.400;10.808;2023-09-08T13:56:32;26.20;59.60
38514;DHT22;24282;48.400;10.808;2023-09-08T13:58:57;26.30;60.00
38514;DHT22;24282;48.400;10.808;2023-09-08T14:01:23;26.30;60.70
38514;DHT22;24282;48.400;10.808;2023-09-08T14:03:49;26.30;61.20
38514;DHT22;24282;48.400;10.808;2023-09-08T14:06:18;26.30;60.20
38514;DHT22;24282;48.400;10.808;2023-09-08T14:08:44;26.40;56.60
38514;DHT22;24282;48.400;10.808;2023-09-08T14:11:10;26.40;57.00
38514;DHT22;24282;48.400;10.808;2023-09-08T14:13:37;26.40;57.30
38514;DHT22;24282;48.400;10.808;2023-09-08T14:16:03;26.40;58.20
38514;DHT22;24282;48.400;10.808;2023-09-08T14:18:29;26.40;58.10
38514;DHT22;24282;48.400;10.808;2023-09-08T14:20:56;26.40;58.20
38514;DHT22;24282;48.400;10.808;2023-09-08T14:23:21;26.40;58.90
38514;DHT22;24282;48.400;10.808;2023-09-08T14:25:47;26.40;59.20
38514;DHT22;24282;48.400;10.808;2023-09-08T14:28:13;26.50;59.20
38514;DHT22;24282;48.400;10.808;2023-09-08T14:30:38;26.50;59.50
38514;DHT22;24282;48.400;10.808;2023-09-08T14:33:06;26.60;59.30
38514;DHT22;24282;48.400;10.808;2023-09-08T14:35:32;26.60;58.70
38514;DHT22;24282;48.400;10.808;2023-09-08T14:37:58;26.60;59.10
38514;DHT22;24282;48.400;10.808;2023-09-08T14:40:24;26.60;58.90
38514;DHT22;24282;48.400;10.808;2023-09-08T14:42:50;26.60;56.80
38514;DHT22;24282;48.400;10.808;2023-09-08T14:45:16;26.70;56.90
38514;DHT22;24282;48.400;10.808;2023-09-08T14:47:41;26.70;56.30
38514;DHT22;24282;48.400;10.808;2023-09-08T14:50:07;26.70;56.30
38514;DHT22;24282;48.400;10.808;2023-09-08T14:52:33;26.80;56.50
38514;DHT22;24282;48.400;10.808;2023-09-08T14:54:59;26.80;55.40
38514;DHT22;24282;48.400;10.808;2023-09-08T14:57:25;26.80;55.00
38514;DHT22;24282;48.400;10.808;2023-09-08T14:59:51;26.80;55.50
38514;DHT22;24282;48.400;10.808;2023-09-08T15:02:21;26.80;55.40
38514;DHT22;24282;48.400;10.808;2023-09-08T15:04:48;26.80;55.90
38514;DHT22;24282;48.400;10.808;2023-09-08T15:07:13;26.80;56.80
38514;DHT22;24282;48.400;10.808;2023-09-08T15:09:39;26.80;57.70
38514;DHT22;24282;48.400;10.808;2023-09-08T15:12:05;26.70;58.00
38514;DHT22;24282;48.400;10.808;2023-09-08T15:14:31;26.70;57.50
38514;DHT22;24282;48.400;10.808;2023-09-08T15:16:57;26.70;57.40
38514;DHT22;24282;48.400;10.808;2023-09-08T15:19:23;26.70;57.30
38514;DHT22;24282;48.400;10.808;2023-09-08T15:21:49;26.70;57.10
38514;DHT22;24282;48.400;10.808;2023-09-08T15:24:15;26.60;57.20